Time;durP1;ratioP1;P1;durP2;ratioP2;P2;SDS_P1;SDS_P2;PMS_P1;PMS_P2;Temp;Humidity;BMP_temperature;BMP_pressure;BME280_temperature;BME280_humidity;BME280_pressure;Samples;Min_cycle;Max_cycle;Signal;HPM_P1;HPM_P2
2021/12/30 00:02:15;;;;;;;1.42;0.93;;;12.40;99.90;;;;;;5012190;28;20116;-90
2021/12/30 00:04:41;;;;;;;1.60;1.25;;;12.40;99.90;;;;;;5011500;28;20072;-89
2021/12/30 00:07:09;;;;;;;1.48;1.30;;;12.40;99.90;;;;;;5011614;28;20379;-90
2021/12/30 00:09:36;;;;;;;2.08;1.10;;;12.40;99.90;;;;;;5015852;28;20021;-89
2021/12/30 00:12:02;;;;;;;1.35;1.20;;;12.40;99.90;;;;;;5033560;28;20034;-89
2021/12/30 00:14:28;;;;;;;1.50;1.38;;;12.40;99.90;;;;;;5032494;28;20086;-89
2021/12/30 00:16:54;;;;;;;1.30;1.20;;;12.40;99.90;;;;;;5032489;28;20105;-88
2021/12/30 00:19:19;;;;;;;1.77;1.48;;;12.40;99.90;;;;;;5026708;28;20484;-90
2021/12/30 00:21:45;;;;;;;1.45;1.35;;;12.40;99.90;;;;;;5025434;28;20026;-88
2021/12/30 00:24:11;;;;;;;1.90;1.23;;;12.40;99.90;;;;;;5031171;28;20034;-90
2021/12/30 00:26:37;;;;;;;3.85;1.20;;;12.40;99.90;;;;;;5017275;28;20029;-90
2021/12/30 00:29:04;;;;;;;2.15;1.00;;;12.40;99.90;;;;;;5011073;28;20038;-89
2021/12/30 00:31:30;;;;;;;2.30;1.15;;;12.40;99.90;;;;;;5010356;28;20121;-89
2021/12/30 00:33:55;;;;;;;1.17;1.00;;;12.40;99.90;;;;;;5010995;28;20111;-89
2021/12/30 00:36:21;;;;;;;1.75;0.80;;;12.40;99.90;;;;;;5010702;28;20030;-89
2021/12/30 00:38:47;;;;;;;1.05;0.80;;;12.40;99.90;;;;;;5009891;28;20110;-89
2021/12/30 00:41:13;;;;;;;0.98;0.70;;;12.50;99.90;;;;;;5010935;28;20062;-89
2021/12/30 00:43:39;;;;;;;1.90;0.82;;;12.40;99.90;;;;;;5011505;28;20026;-89
2021/12/30 00:46:06;;;;;;;1.02;0.90;;;12.40;99.90;;;;;;5009822;28;20089;-89
2021/12/30 00:48:32;;;;;;;0.70;0.70;;;12.40;99.90;;;;;;5021035;28;20025;-89
2021/12/30 00:50:59;;;;;;;0.85;0.80;;;12.40;99.90;;;;;;5018730;28;20565;-89
2021/12/30 00:53:25;;;;;;;1.15;0.85;;;12.40;99.90;;;;;;5011690;28;20034;-89
2021/12/30 00:55:51;;;;;;;0.73;0.73;;;12.40;99.90;;;;;;5010566;28;20037;-89
2021/12/30 00:58:16;;;;;;;1.92;0.90;;;12.50;99.90;;;;;;5012725;28;20037;-89
2021/12/30 01:00:44;;;;;;;1.00;1.00;;;12.40;99.90;;;;;;5015064;28;20124;-89
2021/12/30 01:03:11;;;;;;;4.35;1.60;;;12.40;99.90;;;;;;5014237;28;20053;-89
2021/12/30 01:05:37;;;;;;;1.35;0.90;;;12.40;99.90;;;;;;5013447;28;20025;-89
2021/12/30 01:08:05;;;;;;;0.88;0.80;;;12.40;99.90;;;;;;5012556;28;20516;-89
2021/12/30 01:10:33;;;;;;;1.48;0.93;;;12.40;99.90;;;;;;5014842;28;20425;-89
2021/12/30 01:13:05;;;;;;;1.38;0.95;;;12.40;99.90;;;;;;5012901;28;20049;-89
2021/12/30 01:15:45;;;;;;;1.70;0.80;;;12.40;99.90;;;;;;5012441;28;20030;-89
2021/12/30 01:20:49;;;;;;;3.38;1.00;;;12.40;99.90;;;;;;5011175;28;20022;-89
2021/12/30 01:23:15;;;;;;;2.38;1.08;;;12.40;99.90;;;;;;5010228;28;20574;-89
2021/12/30 01:25:40;;;;;;;3.22;1.00;;;12.40;99.90;;;;;;5017849;28;20108;-89
2021/12/30 01:28:06;;;;;;;2.58;0.82;;;12.40;99.90;;;;;;5012305;28;20282;-89
2021/12/30 01:30:32;;;;;;;1.98;0.90;;;12.30;99.90;;;;;;5013391;28;20037;-89
2021/12/30 01:32:57;;;;;;;2.28;0.90;;;12.40;99.90;;;;;;5013009;28;20057;-89
2021/12/30 01:35:25;;;;;;;2.08;1.08;;;12.30;99.90;;;;;;5014004;28;20183;-89
2021/12/30 01:37:52;;;;;;;3.13;1.20;;;12.40;99.90;;;;;;5009405;28;20038;-89
2021/12/30 01:40:18;;;;;;;2.40;0.93;;;12.40;99.90;;;;;;5014469;28;20442;-89
2021/12/30 01:42:44;;;;;;;2.03;1.20;;;12.40;99.90;;;;;;5012551;28;20018;-90
2021/12/30 01:45:11;;;;;;;1.75;1.25;;;12.40;99.90;;;;;;5013147;28;20029;-89
2021/12/30 01:47:42;;;;;;;1.20;1.10;;;12.40;99.90;;;;;;5013789;28;20375;-89
2021/12/30 01:50:10;;;;;;;2.30;1.20;;;12.30;99.90;;;;;;5008009;28;20490;-90
2021/12/30 01:52:35;;;;;;;3.15;1.10;;;12.40;99.90;;;;;;5011522;28;20064;-89
2021/12/30 01:55:02;;;;;;;1.08;0.95;;;12.40;99.90;;;;;;5011953;28;20041;-90
2021/12/30 01:57:28;;;;;;;1.20;1.00;;;12.40;99.90;;;;;;5013242;28;20025;-89
2021/12/30 01:59:53;;;;;;;1.73;1.17;;;12.40;99.90;;;;;;5024264;28;20025;-88
2021/12/30 02:02:19;;;;;;;2.83;1.02;;;12.30;99.90;;;;;;5012369;28;20038;-89
2021/12/30 02:04:45;;;;;;;3.10;1.20;;;12.30;99.90;;;;;;5012728;28;20022;-89
2021/12/30 02:07:11;;;;;;;2.50;0.95;;;12.30;99.90;;;;;;5010249;28;20124;-89
2021/12/30 02:09:36;;;;;;;2.05;0.98;;;12.30;99.90;;;;;;5012780;28;20026;-89
2021/12/30 02:12:04;;;;;;;1.95;1.00;;;12.30;99.90;;;;;;5010858;28;20126;-89
2021/12/30 02:14:35;;;;;;;2.35;1.17;;;12.30;99.90;;;;;;5011518;28;20053;-89
2021/12/30 02:17:04;;;;;;;3.00;0.80;;;12.30;99.90;;;;;;5012586;28;20025;-90
2021/12/30 02:19:30;;;;;;;2.00;0.80;;;12.30;99.90;;;;;;5006879;28;20077;-89
2021/12/30 02:21:56;;;;;;;5.25;1.15;;;12.30;99.90;;;;;;5011803;28;20026;-90
2021/12/30 02:24:22;;;;;;;4.05;1.00;;;12.30;99.90;;;;;;5012517;28;20559;-89
2021/12/30 02:26:47;;;;;;;3.47;0.93;;;12.30;99.90;;;;;;5011361;28;20113;-90
2021/12/30 02:29:13;;;;;;;5.40;0.80;;;12.30;99.90;;;;;;5011742;28;20129;-90
2021/12/30 02:31:40;;;;;;;2.15;0.90;;;12.30;99.90;;;;;;5012482;28;20160;-90
2021/12/30 02:34:05;;;;;;;2.10;0.85;;;12.20;99.90;;;;;;5014240;28;20034;-89
2021/12/30 02:36:34;;;;;;;2.75;0.98;;;12.20;99.90;;;;;;5034049;28;20036;-88
2021/12/30 02:39:04;;;;;;;4.32;0.80;;;12.20;99.90;;;;;;5032422;28;20014;-88
2021/12/30 02:41:34;;;;;;;2.40;0.77;;;12.30;99.90;;;;;;5034456;28;20018;-89
2021/12/30 02:44:00;;;;;;;3.85;0.85;;;12.20;99.90;;;;;;5023874;28;20021;-89
2021/12/30 02:46:28;;;;;;;3.40;0.82;;;12.20;99.90;;;;;;5010855;28;20116;-89
2021/12/30 02:48:55;;;;;;;3.17;0.73;;;12.10;99.90;;;;;;5014042;28;20044;-90
2021/12/30 02:51:22;;;;;;;2.53;0.95;;;12.20;99.90;;;;;;5011111;28;20443;-89
2021/12/30 02:53:48;;;;;;;2.03;1.00;;;12.20;99.90;;;;;;5010987;28;20022;-89
2021/12/30 02:56:14;;;;;;;3.10;1.00;;;12.20;99.90;;;;;;5011183;28;20359;-89
2021/12/30 02:58:40;;;;;;;4.70;0.90;;;12.10;99.90;;;;;;5010967;28;20041;-89
2021/12/30 03:01:16;;;;;;;3.10;0.80;;;12.20;99.90;;;;;;5010545;28;20026;-89
2021/12/30 03:03:42;;;;;;;2.45;0.95;;;12.10;99.90;;;;;;5021592;28;20018;-89
2021/12/30 03:06:10;;;;;;;3.90;1.00;;;12.10;99.90;;;;;;5005777;28;20470;-89
2021/12/30 03:08:37;;;;;;;3.15;1.00;;;12.20;99.90;;;;;;5019025;28;20029;-88
2021/12/30 03:11:04;;;;;;;2.00;0.88;;;12.10;99.90;;;;;;5012466;28;20446;-89
2021/12/30 03:13:33;;;;;;;3.63;0.80;;;12.10;99.90;;;;;;5012448;28;20034;-89
2021/12/30 03:16:11;;;;;;;4.15;1.33;;;12.20;99.90;;;;;;5011865;28;20061;-90
2021/12/30 03:18:37;;;;;;;5.18;1.00;;;12.20;99.90;;;;;;5011939;28;20017;-89
2021/12/30 03:21:05;;;;;;;3.70;1.10;;;12.20;99.90;;;;;;5009958;28;20026;-89
2021/12/30 03:23:31;;;;;;;2.53;1.33;;;12.20;99.90;;;;;;5010599;28;20033;-89
2021/12/30 03:25:57;;;;;;;3.15;1.02;;;12.10;99.90;;;;;;5012489;28;20026;-89
2021/12/30 03:28:22;;;;;;;3.50;1.20;;;12.10;99.90;;;;;;5014046;28;20025;-89
2021/12/30 03:30:48;;;;;;;6.50;1.17;;;12.20;99.90;;;;;;5026638;28;20030;-90
2021/12/30 03:33:14;;;;;;;4.00;1.05;;;12.10;99.90;;;;;;5011259;28;20037;-89
2021/12/30 03:35:40;;;;;;;1.63;0.93;;;12.20;99.90;;;;;;5009734;28;20061;-89
2021/12/30 03:38:06;;;;;;;2.85;0.93;;;12.10;99.90;;;;;;5012450;28;20022;-89
2021/12/30 03:40:34;;;;;;;3.92;1.20;;;12.10;99.90;;;;;;5010253;28;20183;-89
2021/12/30 03:43:00;;;;;;;2.22;0.95;;;12.10;99.90;;;;;;5011431;28;20056;-89
2021/12/30 03:45:26;;;;;;;5.07;1.30;;;12.10;99.90;;;;;;5015538;28;20045;-89
2021/12/30 03:47:52;;;;;;;3.35;1.02;;;12.20;99.90;;;;;;5009897;28;20121;-89
2021/12/30 03:50:22;;;;;;;2.45;1.27;;;12.10;99.90;;;;;;5011156;28;20026;-89
2021/12/30 03:52:54;;;;;;;1.58;0.98;;;12.10;99.90;;;;;;5018618;28;20029;-90
2021/12/30 03:55:21;;;;;;;1.77;0.90;;;12.10;99.90;;;;;;5011086;28;20049;-89
2021/12/30 03:57:48;;;;;;;2.10;0.90;;;12.10;99.90;;;;;;5009724;28;20398;-89
2021/12/30 04:00:14;;;;;;;2.72;1.02;;;12.10;99.90;;;;;;5009829;28;20064;-89
2021/12/30 04:02:40;;;;;;;3.33;1.10;;;12.10;99.90;;;;;;5009471;28;20022;-90
2021/12/30 04:05:07;;;;;;;2.72;1.20;;;12.20;99.90;;;;;;5010176;28;20045;-89
2021/12/30 04:07:33;;;;;;;6.60;1.20;;;12.20;99.90;;;;;;5003013;28;20443;-89
2021/12/30 04:09:59;;;;;;;4.63;1.15;;;12.20;99.90;;;;;;5010405;28;20041;-90
2021/12/30 04:12:24;;;;;;;2.80;1.08;;;12.20;99.90;;;;;;5008360;28;20034;-89
2021/12/30 04:14:50;;;;;;;2.95;1.33;;;12.20;99.90;;;;;;5009821;28;20029;-89
2021/12/30 04:17:16;;;;;;;2.85;1.20;;;12.20;99.90;;;;;;5009412;28;20025;-89
2021/12/30 04:19:41;;;;;;;3.13;1.17;;;12.20;99.90;;;;;;5021823;28;20104;-89
2021/12/30 04:22:07;;;;;;;3.97;1.10;;;12.20;99.90;;;;;;5009561;28;20149;-89
2021/12/30 04:24:34;;;;;;;1.42;1.10;;;12.20;99.90;;;;;;5009883;28;20037;-89
2021/12/30 04:27:00;;;;;;;4.88;1.38;;;12.20;99.90;;;;;;5009518;28;20125;-89
2021/12/30 04:29:26;;;;;;;2.03;0.90;;;12.20;99.90;;;;;;5010916;28;20108;-90
2021/12/30 04:31:51;;;;;;;1.73;1.00;;;12.20;99.90;;;;;;5009682;28;20496;-90
2021/12/30 04:34:17;;;;;;;3.83;1.08;;;12.20;99.90;;;;;;5009609;28;20030;-90
2021/12/30 04:36:43;;;;;;;2.60;1.17;;;12.20;99.90;;;;;;5009435;28;20152;-90
2021/12/30 04:39:09;;;;;;;1.67;0.90;;;12.20;99.90;;;;;;5008695;28;20080;-90
2021/12/30 04:41:35;;;;;;;1.75;1.00;;;12.30;99.90;;;;;;5009536;28;20028;-90
2021/12/30 04:44:01;;;;;;;1.67;1.00;;;12.30;99.90;;;;;;5012366;28;20478;-90
2021/12/30 04:46:26;;;;;;;1.98;0.85;;;12.30;99.90;;;;;;5008930;28;20474;-89
2021/12/30 04:48:52;;;;;;;2.47;0.85;;;12.30;99.90;;;;;;5009325;28;20498;-90
2021/12/30 04:51:18;;;;;;;4.55;1.30;;;12.30;99.90;;;;;;5010717;28;20037;-90
2021/12/30 04:53:44;;;;;;;4.15;1.20;;;12.30;99.90;;;;;;5009965;28;20022;-89
2021/12/30 04:56:12;;;;;;;1.75;0.77;;;12.30;99.90;;;;;;5010509;28;20026;-89
2021/12/30 04:58:37;;;;;;;1.25;0.90;;;12.30;99.90;;;;;;5025608;28;20022;-89
2021/12/30 05:01:03;;;;;;;3.17;0.98;;;12.30;99.90;;;;;;5031909;28;20041;-89
2021/12/30 05:03:29;;;;;;;1.38;0.80;;;12.30;99.90;;;;;;5032235;28;20014;-89
2021/12/30 05:05:55;;;;;;;2.00;0.82;;;12.30;99.90;;;;;;5028967;28;20037;-89
2021/12/30 05:08:23;;;;;;;4.22;1.10;;;12.30;99.90;;;;;;5009881;28;20153;-89
2021/12/30 05:10:50;;;;;;;1.48;0.90;;;12.30;99.90;;;;;;5009182;28;20486;-89
2021/12/30 05:13:16;;;;;;;2.53;1.35;;;12.30;99.90;;;;;;5009808;28;20033;-89
2021/12/30 05:15:42;;;;;;;1.23;1.08;;;12.30;99.90;;;;;;5010353;28;20113;-89
2021/12/30 05:18:10;;;;;;;1.67;0.88;;;12.30;99.90;;;;;;5008558;28;20034;-89
2021/12/30 05:20:37;;;;;;;3.97;1.20;;;12.30;99.90;;;;;;5015209;28;20076;-89
2021/12/30 05:23:03;;;;;;;2.55;1.10;;;12.20;99.90;;;;;;5009251;28;20030;-88
2021/12/30 05:25:29;;;;;;;2.28;1.00;;;12.20;99.90;;;;;;5009634;28;20028;-89
2021/12/30 05:27:54;;;;;;;2.63;1.17;;;12.20;99.90;;;;;;5009085;28;20034;-90
2021/12/30 05:30:24;;;;;;;4.20;1.48;;;12.20;99.90;;;;;;5009794;28;20468;-89
2021/12/30 05:32:55;;;;;;;1.83;1.63;;;12.20;99.90;;;;;;5009430;28;20409;-90
2021/12/30 05:35:21;;;;;;;2.35;1.42;;;12.20;99.90;;;;;;5009657;28;20477;-89
2021/12/30 05:37:48;;;;;;;3.00;1.58;;;12.20;99.90;;;;;;5019399;28;20029;-89
2021/12/30 05:40:17;;;;;;;3.08;2.40;;;12.20;99.90;;;;;;5008113;28;20030;-89
2021/12/30 05:42:43;;;;;;;2.90;1.40;;;12.10;99.90;;;;;;5009921;28;20501;-88
2021/12/30 05:45:10;;;;;;;3.65;1.60;;;12.10;99.90;;;;;;5012212;28;20033;-88
2021/12/30 05:47:36;;;;;;;2.15;1.30;;;12.10;99.90;;;;;;5011206;28;20030;-89
2021/12/30 05:50:07;;;;;;;1.95;1.52;;;12.10;99.90;;;;;;5083622;22;20017;-69
2021/12/30 05:52:33;;;;;;;2.75;1.63;;;12.10;99.90;;;;;;5033688;28;20044;-70
2021/12/30 05:54:59;;;;;;;1.58;1.30;;;12.10;99.90;;;;;;5035201;28;20040;-66
2021/12/30 05:57:25;;;;;;;1.42;1.27;;;12.10;99.90;;;;;;5033332;28;20014;-67
2021/12/30 05:59:50;;;;;;;0.82;0.82;;;12.10;99.90;;;;;;5036963;28;20051;-67
2021/12/30 06:02:16;;;;;;;1.60;1.00;;;12.10;99.90;;;;;;5041012;28;20021;-67
2021/12/30 06:04:42;;;;;;;2.35;0.93;;;12.10;99.90;;;;;;5035137;28;20025;-67
2021/12/30 06:07:08;;;;;;;1.00;0.90;;;12.10;99.90;;;;;;5034119;28;20036;-67
2021/12/30 06:09:35;;;;;;;0.88;0.77;;;12.10;99.90;;;;;;5034430;28;20059;-69
2021/12/30 06:12:00;;;;;;;1.15;0.70;;;12.10;99.90;;;;;;5035292;28;20033;-68
2021/12/30 06:14:26;;;;;;;1.70;0.80;;;12.10;99.90;;;;;;5034742;28;20025;-67
2021/12/30 06:16:51;;;;;;;1.42;0.80;;;12.10;99.90;;;;;;5027871;28;20017;-67
2021/12/30 06:19:17;;;;;;;0.73;0.70;;;12.20;99.90;;;;;;5031958;28;20021;-66
2021/12/30 06:21:43;;;;;;;0.95;0.73;;;12.20;99.90;;;;;;5027818;28;20111;-66
2021/12/30 06:24:09;;;;;;;0.73;0.73;;;12.20;99.90;;;;;;5029498;28;20092;-67
2021/12/30 06:26:34;;;;;;;1.52;1.30;;;12.20;99.90;;;;;;5029323;28;20021;-65
2021/12/30 06:29:00;;;;;;;2.05;1.15;;;12.30;99.90;;;;;;5027742;28;20039;-66
2021/12/30 06:31:26;;;;;;;1.08;1.08;;;12.30;99.90;;;;;;5015510;28;20022;-66
2021/12/30 06:33:51;;;;;;;1.88;1.20;;;12.30;99.90;;;;;;5024291;28;20040;-66
2021/12/30 06:36:17;;;;;;;1.38;1.27;;;12.30;99.90;;;;;;5034854;28;20056;-68
2021/12/30 06:38:43;;;;;;;1.08;1.08;;;12.30;99.90;;;;;;5034039;28;20138;-67
2021/12/30 06:41:09;;;;;;;1.00;0.90;;;12.30;99.90;;;;;;5035004;28;20037;-67
2021/12/30 06:43:35;;;;;;;1.20;1.10;;;12.30;99.90;;;;;;5034720;28;20028;-66
2021/12/30 06:46:04;;;;;;;3.60;1.08;;;12.30;99.90;;;;;;5034633;28;20024;-66
2021/12/30 06:48:30;;;;;;;1.60;0.80;;;12.30;99.90;;;;;;5051888;28;20542;-66
2021/12/30 06:50:57;;;;;;;1.20;0.90;;;12.30;99.90;;;;;;5033751;28;20049;-66
2021/12/30 06:53:24;;;;;;;1.27;0.80;;;12.30;99.90;;;;;;5034144;28;20132;-65
2021/12/30 06:55:51;;;;;;;1.20;0.88;;;12.30;99.90;;;;;;5033547;28;20021;-66
2021/12/30 06:58:18;;;;;;;1.00;1.00;;;12.30;99.90;;;;;;5033458;28;20029;-66
2021/12/30 07:00:45;;;;;;;1.20;0.80;;;12.30;99.90;;;;;;5035187;28;20029;-67
2021/12/30 07:03:11;;;;;;;0.75;0.73;;;12.30;99.90;;;;;;5035025;28;20021;-65
2021/12/30 07:05:37;;;;;;;0.70;0.70;;;12.30;99.90;;;;;;5035038;28;20025;-66
2021/12/30 07:08:03;;;;;;;1.23;0.57;;;12.30;99.90;;;;;;5033656;28;20044;-69
2021/12/30 07:10:28;;;;;;;0.90;0.50;;;12.30;99.90;;;;;;5034968;28;20028;-67
2021/12/30 07:12:55;;;;;;;0.80;0.80;;;12.20;99.90;;;;;;5034659;28;20025;-67
2021/12/30 07:15:21;;;;;;;0.63;0.60;;;12.30;99.90;;;;;;5044139;28;20028;-68
2021/12/30 07:17:47;;;;;;;0.50;0.50;;;12.30;99.90;;;;;;5040520;28;20025;-68
2021/12/30 07:20:13;;;;;;;0.43;0.43;;;12.30;99.90;;;;;;5034477;28;20017;-68
2021/12/30 07:22:39;;;;;;;0.50;0.50;;;12.30;99.90;;;;;;5033274;28;20120;-68
2021/12/30 07:25:06;;;;;;;0.40;0.40;;;12.30;99.90;;;;;;5032318;28;20031;-68
2021/12/30 07:27:31;;;;;;;1.45;0.38;;;12.30;99.90;;;;;;5032665;28;20029;-68
2021/12/30 07:29:59;;;;;;;1.15;0.50;;;12.30;99.90;;;;;;5033108;28;20170;-68
2021/12/30 07:32:28;;;;;;;1.85;0.40;;;12.30;99.90;;;;;;5034162;28;20455;-68
2021/12/30 07:34:54;;;;;;;0.40;0.40;;;12.30;99.90;;;;;;5030877;28;20061;-67
2021/12/30 07:37:20;;;;;;;0.50;0.50;;;12.20;99.90;;;;;;5026510;28;20072;-65
2021/12/30 07:39:47;;;;;;;0.38;0.38;;;12.20;99.90;;;;;;5033197;28;20017;-66
2021/12/30 07:42:13;;;;;;;1.50;0.65;;;12.30;99.90;;;;;;5042999;28;20074;-66
2021/12/30 07:44:40;;;;;;;0.45;0.45;;;12.30;99.90;;;;;;5033846;28;20025;-66
2021/12/30 07:47:07;;;;;;;0.63;0.40;;;12.30;99.90;;;;;;5033130;28;20036;-66
2021/12/30 07:49:35;;;;;;;0.50;0.50;;;12.30;99.90;;;;;;5033772;28;20040;-67
2021/12/30 07:52:01;;;;;;;0.60;0.60;;;12.30;99.90;;;;;;5025305;28;20117;-66
2021/12/30 07:54:26;;;;;;;0.50;0.50;;;12.30;99.90;;;;;;5033570;28;20044;-65
2021/12/30 07:56:52;;;;;;;1.40;0.88;;;12.40;99.90;;;;;;5049297;28;20052;-66
2021/12/30 07:59:18;;;;;;;0.50;0.50;;;12.40;99.90;;;;;;5038897;28;20016;-68
2021/12/30 08:01:44;;;;;;;0.55;0.55;;;12.40;99.90;;;;;;5032773;28;20388;-68
2021/12/30 08:04:09;;;;;;;1.95;0.60;;;12.40;99.90;;;;;;5033003;28;20511;-67
2021/12/30 08:06:35;;;;;;;1.17;0.82;;;12.40;99.90;;;;;;5050054;28;20025;-68
2021/12/30 08:09:01;;;;;;;0.80;0.80;;;12.40;99.90;;;;;;5037062;28;20017;-69
2021/12/30 08:11:26;;;;;;;1.58;0.60;;;12.50;99.90;;;;;;5051366;28;20507;-68
2021/12/30 08:13:52;;;;;;;0.95;0.95;;;12.40;99.90;;;;;;5033336;28;20025;-68
2021/12/30 08:16:18;;;;;;;0.70;0.70;;;12.50;99.90;;;;;;5033661;28;20035;-67
2021/12/30 08:18:44;;;;;;;0.90;0.90;;;12.50;99.90;;;;;;5032402;28;20021;-68
2021/12/30 08:21:11;;;;;;;0.60;0.60;;;12.50;99.90;;;;;;5033002;28;20021;-68
2021/12/30 08:23:37;;;;;;;0.50;0.50;;;12.50;99.90;;;;;;5027228;28;20029;-68
2021/12/30 08:26:04;;;;;;;0.52;0.52;;;12.50;99.90;;;;;;5030537;28;20389;-68
2021/12/30 08:28:30;;;;;;;0.98;0.98;;;12.50;99.90;;;;;;5032038;28;20028;-67
2021/12/30 08:30:56;;;;;;;0.50;0.50;;;12.50;99.90;;;;;;5025800;28;20036;-67
2021/12/30 08:33:22;;;;;;;0.43;0.43;;;12.50;99.90;;;;;;5035378;28;20021;-68
2021/12/30 08:35:48;;;;;;;1.85;0.40;;;12.50;99.90;;;;;;5033129;28;20489;-68
2021/12/30 08:38:14;;;;;;;1.02;0.50;;;12.50;99.90;;;;;;5032301;28;20025;-69
2021/12/30 08:40:40;;;;;;;0.40;0.40;;;12.50;99.90;;;;;;5033388;28;20028;-70
2021/12/30 08:43:11;;;;;;;0.50;0.50;;;12.60;99.90;;;;;;5033051;28;20112;-68
2021/12/30 08:45:37;;;;;;;0.52;0.52;;;12.60;99.90;;;;;;5033016;28;20098;-68
2021/12/30 08:48:04;;;;;;;0.60;0.60;;;12.60;99.90;;;;;;5031197;28;20040;-68
2021/12/30 08:50:29;;;;;;;0.60;0.60;;;12.60;99.90;;;;;;5032775;28;20035;-67
2021/12/30 08:52:55;;;;;;;1.27;0.93;;;12.60;99.90;;;;;;5032356;28;20033;-68
2021/12/30 08:55:21;;;;;;;0.60;0.60;;;12.60;99.90;;;;;;5029678;28;20037;-67
2021/12/30 08:57:48;;;;;;;0.50;0.50;;;12.60;99.90;;;;;;5031929;28;20017;-68
2021/12/30 09:00:27;;;;;;;0.60;0.60;;;12.70;99.90;;;;;;5034298;28;20025;-68
2021/12/30 09:02:55;;;;;;;1.00;0.70;;;12.70;99.90;;;;;;5025715;28;20581;-68
2021/12/30 09:05:21;;;;;;;1.13;0.85;;;12.70;99.90;;;;;;5032944;28;20055;-68
2021/12/30 09:07:48;;;;;;;1.30;0.70;;;12.70;99.90;;;;;;5032020;28;20033;-67
2021/12/30 09:10:15;;;;;;;1.67;0.80;;;12.80;99.90;;;;;;5032676;28;20033;-68
2021/12/30 09:12:43;;;;;;;1.88;0.85;;;12.80;99.90;;;;;;5033289;28;20044;-68
2021/12/30 09:15:11;;;;;;;1.08;1.08;;;12.80;99.90;;;;;;5032732;28;20539;-68
2021/12/30 09:17:38;;;;;;;1.05;1.05;;;12.80;99.90;;;;;;5031549;28;20021;-68
2021/12/30 09:20:06;;;;;;;0.90;0.90;;;12.80;99.90;;;;;;5035228;28;20094;-67
2021/12/30 09:22:33;;;;;;;0.98;0.98;;;12.80;99.90;;;;;;5036151;28;20107;-68
2021/12/30 09:24:59;;;;;;;1.00;1.00;;;12.80;99.90;;;;;;5036429;28;20039;-69
2021/12/30 09:27:24;;;;;;;1.52;0.90;;;12.80;99.90;;;;;;5053590;28;20389;-68
2021/12/30 09:29:50;;;;;;;0.60;0.60;;;12.90;99.90;;;;;;5036447;28;20059;-68
2021/12/30 09:32:16;;;;;;;1.42;1.35;;;12.90;99.90;;;;;;5036749;28;20032;-68
2021/12/30 09:34:41;;;;;;;5.00;4.05;;;12.90;99.90;;;;;;5036243;28;20132;-68
2021/12/30 09:37:09;;;;;;;3.67;1.23;;;13.00;99.90;;;;;;5035616;28;20075;-68
2021/12/30 09:39:37;;;;;;;1.67;1.08;;;13.00;99.90;;;;;;5034506;28;20436;-68
2021/12/30 09:42:03;;;;;;;0.88;0.88;;;13.00;99.90;;;;;;5036630;28;20528;-67
2021/12/30 09:44:29;;;;;;;2.45;2.10;;;13.10;99.90;;;;;;5035095;28;20056;-68
2021/12/30 09:46:55;;;;;;;0.80;0.80;;;13.10;99.90;;;;;;5036027;28;20024;-68
2021/12/30 09:49:23;;;;;;;1.25;1.20;;;13.20;99.90;;;;;;5035177;28;20076;-67
2021/12/30 09:51:50;;;;;;;0.80;0.80;;;13.20;99.90;;;;;;5035109;28;20075;-68
2021/12/30 09:54:16;;;;;;;3.38;2.08;;;13.30;99.90;;;;;;5039908;28;20025;-68
2021/12/30 09:56:43;;;;;;;4.07;3.63;;;13.30;99.90;;;;;;5035549;28;20767;-68
2021/12/30 09:59:10;;;;;;;3.70;3.38;;;13.30;99.90;;;;;;5034408;28;20029;-68
2021/12/30 10:01:38;;;;;;;1.20;1.10;;;13.40;99.90;;;;;;5036302;28;20021;-68
2021/12/30 10:04:06;;;;;;;1.13;1.13;;;13.40;99.90;;;;;;5036093;28;20045;-68
2021/12/30 10:06:33;;;;;;;0.88;0.88;;;13.40;99.90;;;;;;5053370;28;20074;-67
2021/12/30 10:09:10;;;;;;;0.70;0.70;;;13.40;99.90;;;;;;5033966;28;20468;-67
2021/12/30 10:11:56;;;;;;;0.90;0.90;;;13.50;99.90;;;;;;5052297;28;20040;-68
2021/12/30 10:14:32;;;;;;;0.50;0.50;;;13.50;99.90;;;;;;5035891;28;20493;-67
2021/12/30 10:17:18;;;;;;;1.00;0.40;;;13.50;99.90;;;;;;5034616;28;20079;-67
2021/12/30 10:19:45;;;;;;;0.43;0.43;;;13.50;99.90;;;;;;5035609;28;20021;-68
2021/12/30 10:22:12;;;;;;;0.45;0.40;;;13.50;99.90;;;;;;5033574;28;20017;-68
2021/12/30 10:24:38;;;;;;;0.73;0.50;;;13.50;99.90;;;;;;5035674;28;20040;-67
2021/12/30 10:27:04;;;;;;;0.30;0.30;;;13.50;99.90;;;;;;5034796;28;20123;-66
2021/12/30 10:29:44;;;;;;;0.30;0.30;;;13.50;99.90;;;;;;5034523;28;20488;-70
2021/12/30 10:32:27;;;;;;;0.75;0.52;;;13.50;99.90;;;;;;5035335;28;20405;-67
2021/12/30 10:35:07;;;;;;;0.47;0.32;;;13.50;99.90;;;;;;5035525;28;20025;-67
2021/12/30 10:37:33;;;;;;;0.40;0.40;;;13.50;99.90;;;;;;5034001;28;20054;-67
2021/12/30 10:39:59;;;;;;;0.20;0.20;;;13.50;99.90;;;;;;5035556;28;20060;-67
2021/12/30 10:42:30;;;;;;;0.50;0.50;;;13.50;99.90;;;;;;5026292;28;20128;-67
2021/12/30 10:45:04;;;;;;;0.30;0.30;;;13.60;99.90;;;;;;5035274;28;20453;-71
2021/12/30 10:47:49;;;;;;;2.00;0.68;;;13.60;99.90;;;;;;5033779;28;20033;-67
2021/12/30 10:50:15;;;;;;;1.13;1.00;;;13.60;99.90;;;;;;5034103;28;20025;-67
2021/12/30 10:52:49;;;;;;;0.40;0.40;;;13.60;99.90;;;;;;5034586;28;20024;-67
2021/12/30 10:55:15;;;;;;;0.47;0.47;;;13.60;99.90;;;;;;5034941;28;20111;-67
2021/12/30 10:57:41;;;;;;;3.53;2.80;;;13.70;99.90;;;;;;5033869;28;20112;-66
2021/12/30 11:00:08;;;;;;;0.50;0.50;;;13.70;99.90;;;;;;5034582;28;20052;-67
2021/12/30 11:02:36;;;;;;;0.40;0.40;;;13.70;99.90;;;;;;5034468;28;20108;-66
2021/12/30 11:05:09;;;;;;;0.50;0.50;;;13.70;99.90;;;;;;5034430;28;20404;-67
2021/12/30 11:07:51;;;;;;;0.50;0.50;;;13.70;99.90;;;;;;5026375;28;20029;-66
2021/12/30 11:10:29;;;;;;;;;;;13.70;99.90;;;;;;5019004;28;20392;-67
2021/12/30 11:13:07;;;;;;;0.80;0.80;;;13.80;99.90;;;;;;5034801;28;19905;-66
2021/12/30 11:15:33;;;;;;;0.65;0.65;;;13.80;99.90;;;;;;5032079;28;20031;-66
2021/12/30 11:18:05;;;;;;;0.73;0.40;;;13.80;99.90;;;;;;5033893;28;20029;-69
2021/12/30 11:20:36;;;;;;;;;;;13.80;99.90;;;;;;5024879;28;20032;-67
2021/12/30 11:23:02;;;;;;;1.73;1.63;;;13.80;99.90;;;;;;5034221;28;19916;-67
2021/12/30 11:25:28;;;;;;;0.50;0.50;;;13.80;99.90;;;;;;5034184;28;20389;-67
2021/12/30 11:27:54;;;;;;;0.60;0.60;;;13.80;99.90;;;;;;5033417;28;20025;-68
2021/12/30 11:30:20;;;;;;;1.40;0.70;;;13.80;99.90;;;;;;5028102;28;20410;-68
2021/12/30 11:32:49;;;;;;;0.40;0.40;;;13.80;99.90;;;;;;5014717;28;20114;-67
2021/12/30 11:35:20;;;;;;;0.50;0.50;;;13.80;99.90;;;;;;5030769;28;20029;-67
2021/12/30 11:37:47;;;;;;;1.70;1.60;;;13.80;99.90;;;;;;5032588;28;20543;-70
2021/12/30 11:40:17;;;;;;;1.23;1.05;;;13.80;99.90;;;;;;5030134;28;20025;-67
2021/12/30 11:42:49;;;;;;;2.65;2.35;;;13.80;99.90;;;;;;5031017;28;20037;-66
2021/12/30 11:45:28;;;;;;;1.40;1.30;;;13.80;99.90;;;;;;5026876;28;20415;-68
2021/12/30 11:47:56;;;;;;;3.28;2.95;;;13.90;99.90;;;;;;5025917;28;20032;-67
2021/12/30 11:53:07;;;;;;;7.32;4.15;;;13.90;99.90;;;;;;5058448;22;20029;-91
2021/12/30 11:56:02;;;;;;;1.45;1.20;;;14.00;99.90;;;;;;5037027;28;20037;-92
2021/12/30 11:58:48;;;;;;;0.70;0.50;;;14.00;99.90;;;;;;5036020;28;20021;-90
2021/12/30 12:01:14;;;;;;;0.90;0.70;;;14.00;99.90;;;;;;5049612;28;20030;-92
2021/12/30 12:03:53;;;;;;;1.30;0.80;;;14.00;99.90;;;;;;5015147;28;20044;-91
2021/12/30 12:06:25;;;;;;;0.40;0.40;;;14.10;99.90;;;;;;5015128;28;20034;-92
2021/12/30 12:08:53;;;;;;;1.40;1.30;;;14.10;99.90;;;;;;5014778;28;20493;-91
2021/12/30 12:11:21;;;;;;;0.55;0.50;;;14.00;99.90;;;;;;5013983;28;20037;-91
2021/12/30 12:13:50;;;;;;;0.30;0.30;;;14.00;99.90;;;;;;5014230;28;20029;-91
2021/12/30 12:16:36;;;;;;;0.50;0.50;;;14.00;99.90;;;;;;5012521;28;20405;-89
2021/12/30 12:19:07;;;;;;;0.47;0.40;;;14.00;99.90;;;;;;5010692;28;20057;-88
2021/12/30 12:21:41;;;;;;;0.50;0.43;;;14.10;99.90;;;;;;5000418;28;20022;-88
2021/12/30 12:24:22;;;;;;;0.75;0.70;;;14.10;99.90;;;;;;5030813;28;20390;-89
2021/12/30 12:27:00;;;;;;;1.70;0.50;;;14.00;99.90;;;;;;5031602;28;20480;-89
2021/12/30 12:29:32;;;;;;;0.43;0.30;;;14.00;99.90;;;;;;5013554;28;20026;-88
2021/12/30 12:32:10;;;;;;;1.33;1.23;;;14.10;99.90;;;;;;5013076;28;20020;-88
2021/12/30 12:34:53;;;;;;;0.40;0.40;;;14.10;99.90;;;;;;5013913;28;20091;-88
2021/12/30 12:37:37;;;;;;;0.32;0.32;;;14.10;99.90;;;;;;5030361;28;20025;-88
2021/12/30 12:40:10;;;;;;;4.28;2.30;;;14.00;99.90;;;;;;5031523;28;20549;-88
2021/12/30 12:42:51;;;;;;;3.33;2.33;;;14.00;99.90;;;;;;5013185;28;20079;-87
2021/12/30 12:45:25;;;;;;;0.80;0.80;;;14.10;99.90;;;;;;5013494;28;20444;-89
2021/12/30 12:48:15;;;;;;;1.45;0.43;;;14.00;99.90;;;;;;5029972;28;20065;-88
2021/12/30 12:50:45;;;;;;;0.47;0.47;;;14.00;99.90;;;;;;5030899;28;20044;-88
2021/12/30 12:53:26;;;;;;;0.28;0.28;;;14.00;99.90;;;;;;5014562;28;20079;-87
2021/12/30 12:55:54;;;;;;;0.30;0.30;;;14.00;99.90;;;;;;5017239;28;20521;-88
2021/12/30 12:58:30;;;;;;;1.63;1.52;;;14.10;99.90;;;;;;5016446;28;20037;-88